Time;durP1;ratioP1;P1;durP2;ratioP2;P2;SDS_P1;SDS_P2;PMS_P1;PMS_P2;Temp;Humidity;BMP_temperature;BMP_pressure;BME280_temperature;BME280_humidity;BME280_pressure;Samples;Min_cycle;Max_cycle;Signal;HPM_P1;HPM_P2
2021/08/19 00:00:54;;;;;;;24.35;17.25;;;15.50;99.90;;;;;;4186272;28;20051;-74
2021/08/19 00:02:55;;;;;;;24.85;18.08;;;15.60;99.90;;;;;;4209662;28;20032;-74
2021/08/19 00:04:56;;;;;;;22.50;17.20;;;15.50;99.90;;;;;;4208134;28;20030;-74
2021/08/19 00:06:57;;;;;;;21.85;17.35;;;15.50;99.90;;;;;;4209941;28;20031;-73
2021/08/19 00:08:57;;;;;;;25.27;17.58;;;15.50;99.90;;;;;;4208482;28;20020;-74
2021/08/19 00:10:58;;;;;;;22.15;17.70;;;15.50;99.90;;;;;;4210880;28;20536;-72
2021/08/19 00:13:00;;;;;;;26.98;16.83;;;15.50;99.90;;;;;;4206480;28;20028;-72
2021/08/19 00:15:01;;;;;;;23.67;17.30;;;15.50;99.90;;;;;;4207989;28;20028;-73
2021/08/19 00:17:03;;;;;;;26.05;17.67;;;15.70;99.90;;;;;;4210196;28;20024;-73
2021/08/19 00:19:04;;;;;;;26.50;19.77;;;15.50;99.90;;;;;;4192974;28;20435;-73
2021/08/19 00:21:05;;;;;;;23.45;18.73;;;15.50;99.90;;;;;;4212056;28;20028;-74
2021/08/19 00:23:06;;;;;;;27.75;18.92;;;15.50;99.90;;;;;;4211031;28;21871;-73
2021/08/19 00:25:07;;;;;;;23.27;17.38;;;15.50;99.90;;;;;;4210676;28;20036;-74
2021/08/19 00:27:08;;;;;;;26.70;19.65;;;15.50;99.90;;;;;;4212001;28;20139;-74
2021/08/19 00:29:09;;;;;;;22.17;18.08;;;15.50;99.90;;;;;;4205922;28;20089;-73
2021/08/19 00:31:09;;;;;;;23.50;18.50;;;15.50;99.90;;;;;;4210369;28;20040;-73
2021/08/19 00:33:10;;;;;;;23.10;17.65;;;15.40;99.90;;;;;;4207099;28;20024;-74
2021/08/19 00:35:11;;;;;;;25.17;19.00;;;15.60;99.90;;;;;;4192940;28;20464;-73
2021/08/19 00:37:12;;;;;;;27.88;18.85;;;15.60;99.90;;;;;;4189638;28;20032;-72
2021/08/19 00:39:13;;;;;;;25.08;19.58;;;15.50;99.90;;;;;;4210588;28;20028;-73
2021/08/19 00:41:14;;;;;;;24.55;18.52;;;15.50;99.90;;;;;;4208344;28;20410;-73
2021/08/19 00:43:15;;;;;;;26.85;19.25;;;15.40;99.90;;;;;;4206597;28;20109;-73
2021/08/19 00:45:15;;;;;;;29.50;19.42;;;15.30;99.90;;;;;;4209722;28;20510;-74
2021/08/19 00:47:16;;;;;;;28.42;20.38;;;15.20;99.90;;;;;;4206112;28;20036;-71
2021/08/19 00:49:17;;;;;;;29.67;19.13;;;15.10;99.90;;;;;;4191771;28;20556;-71
2021/08/19 00:51:17;;;;;;;24.88;18.05;;;15.00;99.90;;;;;;4205956;28;20408;-74
2021/08/19 00:53:18;;;;;;;32.60;21.25;;;15.00;99.90;;;;;;4209592;28;20024;-74
2021/08/19 00:55:20;;;;;;;30.70;19.92;;;14.90;99.90;;;;;;4211258;28;20062;-74
2021/08/19 00:57:21;;;;;;;30.08;19.23;;;14.90;99.90;;;;;;4212849;28;20073;-74
2021/08/19 00:59:25;;;;;;;29.77;21.42;;;14.90;99.90;;;;;;4211038;28;20052;-74
2021/08/19 01:01:26;;;;;;;33.60;21.52;;;14.80;99.90;;;;;;4213090;28;20036;-73
2021/08/19 01:03:27;;;;;;;31.23;21.10;;;14.80;99.90;;;;;;4213730;28;20502;-74
2021/08/19 01:05:29;;;;;;;31.13;20.17;;;14.80;99.90;;;;;;4214392;28;20115;-74
2021/08/19 01:07:29;;;;;;;31.23;22.33;;;14.80;99.90;;;;;;4206321;28;20471;-73
2021/08/19 01:09:30;;;;;;;28.20;20.70;;;14.80;99.90;;;;;;4214048;28;20109;-73
2021/08/19 01:11:35;;;;;;;41.67;23.65;;;14.80;99.90;;;;;;4195943;28;20029;-73
2021/08/19 01:13:36;;;;;;;30.85;20.83;;;14.80;99.90;;;;;;4213799;28;20107;-73
2021/08/19 01:15:37;;;;;;;40.65;24.15;;;14.70;99.90;;;;;;4206737;28;20039;-73
2021/08/19 01:17:38;;;;;;;30.73;22.65;;;14.80;99.90;;;;;;4214397;28;20032;-73
2021/08/19 01:19:40;;;;;;;35.55;23.75;;;14.90;99.90;;;;;;4206345;28;20052;-74
2021/08/19 01:21:41;;;;;;;35.85;24.35;;;15.80;99.90;;;;;;4212561;28;20031;-74
2021/08/19 01:23:42;;;;;;;33.10;23.73;;;15.00;99.90;;;;;;4210135;28;20123;-74
2021/08/19 01:25:43;;;;;;;33.47;23.75;;;15.10;99.90;;;;;;4207668;28;20066;-73
2021/08/19 01:27:44;;;;;;;33.15;23.63;;;15.20;99.90;;;;;;4211365;28;20670;-73
2021/08/19 01:29:47;;;;;;;35.92;23.83;;;15.30;99.90;;;;;;4207226;28;20357;-74
2021/08/19 01:32:03;;;;;;;34.05;24.17;;;15.30;99.90;;;;;;4194054;28;20519;-75
2021/08/19 01:34:03;;;;;;;26.70;21.23;;;15.40;99.90;;;;;;4203347;28;20028;-72
2021/08/19 01:36:04;;;;;;;26.17;21.00;;;15.50;99.90;;;;;;4212393;28;20028;-74
2021/08/19 01:38:04;;;;;;;26.60;21.15;;;15.50;99.90;;;;;;4208295;28;20048;-74
2021/08/19 01:40:06;;;;;;;26.80;20.35;;;15.60;99.90;;;;;;4211863;28;20028;-74
2021/08/19 01:42:06;;;;;;;29.83;20.00;;;15.60;99.90;;;;;;4191517;28;20147;-74
2021/08/19 01:44:07;;;;;;;27.30;20.08;;;15.60;99.90;;;;;;4195365;28;20029;-74
2021/08/19 01:46:12;;;;;;;28.95;20.75;;;15.60;99.90;;;;;;4194466;28;20432;-73
2021/08/19 01:48:15;;;;;;;24.58;19.75;;;15.60;99.90;;;;;;4194063;28;20039;-73
2021/08/19 01:50:15;;;;;;;26.92;21.02;;;15.60;99.90;;;;;;4196074;28;20043;-74
2021/08/19 01:52:16;;;;;;;30.20;22.00;;;15.60;99.90;;;;;;4196103;28;20049;-74
2021/08/19 01:54:17;;;;;;;25.92;20.08;;;15.50;99.90;;;;;;4189325;28;20038;-74
2021/08/19 01:56:24;;;;;;;26.20;20.83;;;15.80;99.90;;;;;;4197191;28;20123;-73
2021/08/19 01:58:25;;;;;;;26.98;22.23;;;15.70;99.90;;;;;;4189939;28;20025;-74
2021/08/19 02:00:25;;;;;;;29.05;21.05;;;15.60;99.90;;;;;;4196646;28;20044;-74
2021/08/19 02:02:26;;;;;;;30.27;22.17;;;15.70;99.90;;;;;;4195182;28;20025;-73
2021/08/19 02:04:27;;;;;;;30.38;22.63;;;15.70;99.90;;;;;;4194402;28;20492;-75
2021/08/19 02:06:28;;;;;;;37.60;25.17;;;15.80;99.90;;;;;;4191176;28;20036;-74
2021/08/19 02:08:28;;;;;;;35.88;25.05;;;15.90;99.90;;;;;;4194860;28;20099;-74
2021/08/19 02:10:29;;;;;;;36.50;25.08;;;15.80;99.90;;;;;;4193901;28;20123;-74
2021/08/19 02:12:29;;;;;;;32.97;23.70;;;15.80;99.90;;;;;;4197155;28;20379;-75
2021/08/19 02:14:30;;;;;;;35.45;26.27;;;15.90;99.90;;;;;;4193583;28;20496;-73
2021/08/19 02:16:31;;;;;;;44.47;28.05;;;15.90;99.90;;;;;;4189280;28;20098;-71
2021/08/19 02:18:31;;;;;;;33.97;24.90;;;15.60;99.90;;;;;;4195683;28;20067;-73
2021/08/19 02:20:33;;;;;;;37.47;24.52;;;15.40;99.90;;;;;;4191811;28;20160;-74
2021/08/19 02:22:33;;;;;;;35.10;26.20;;;16.00;99.90;;;;;;4194454;28;20038;-73
2021/08/19 02:24:34;;;;;;;34.65;25.90;;;16.00;99.90;;;;;;4189850;28;20388;-72
2021/08/19 02:26:34;;;;;;;35.85;26.65;;;16.00;99.90;;;;;;4194340;28;20036;-73
2021/08/19 02:28:35;;;;;;;42.58;27.08;;;16.10;99.90;;;;;;4193373;28;20039;-73
2021/08/19 02:30:36;;;;;;;39.17;27.65;;;16.10;99.90;;;;;;4195193;28;20438;-74
2021/08/19 02:32:37;;;;;;;41.47;28.45;;;16.10;99.90;;;;;;4190869;28;20047;-74
2021/08/19 02:34:37;;;;;;;45.20;29.23;;;16.20;99.90;;;;;;4195273;28;20115;-73
2021/08/19 02:36:38;;;;;;;45.25;29.67;;;16.20;99.90;;;;;;4194763;28;20067;-72
2021/08/19 02:38:39;;;;;;;41.97;29.15;;;16.20;99.90;;;;;;4194799;28;20465;-74
2021/08/19 02:40:40;;;;;;;41.33;29.63;;;16.20;99.90;;;;;;4195306;28;20519;-74
2021/08/19 02:42:41;;;;;;;46.53;31.15;;;16.30;99.90;;;;;;4202510;28;20123;-74
2021/08/19 02:44:41;;;;;;;47.50;30.27;;;16.30;99.90;;;;;;4206342;28;20059;-73
2021/08/19 02:46:42;;;;;;;46.50;32.70;;;16.30;99.90;;;;;;4208446;28;20444;-73
2021/08/19 02:48:43;;;;;;;49.47;33.05;;;16.30;99.90;;;;;;4204814;28;20419;-73
2021/08/19 02:50:43;;;;;;;53.55;33.95;;;16.10;99.90;;;;;;4211749;28;20028;-73
2021/08/19 02:52:44;;;;;;;56.75;34.25;;;16.30;99.90;;;;;;4206900;28;20063;-73
2021/08/19 02:54:45;;;;;;;54.13;34.25;;;16.30;99.90;;;;;;4193956;28;20375;-74
2021/08/19 02:56:45;;;;;;;46.60;32.42;;;16.40;99.90;;;;;;4208730;28;20376;-73
2021/08/19 02:58:46;;;;;;;52.97;32.78;;;16.40;99.90;;;;;;4195055;28;20486;-72
2021/08/19 03:00:47;;;;;;;55.92;36.63;;;16.40;99.90;;;;;;4207611;28;20028;-71
2021/08/19 03:02:47;;;;;;;50.70;35.13;;;16.50;99.90;;;;;;4212327;28;20032;-72
2021/08/19 03:04:48;;;;;;;53.17;34.78;;;16.50;99.90;;;;;;4208247;28;20032;-72
2021/08/19 03:06:49;;;;;;;52.35;35.60;;;16.50;99.90;;;;;;4200983;28;20040;-74
2021/08/19 03:08:49;;;;;;;50.50;35.22;;;16.50;99.90;;;;;;4192986;28;20029;-73
2021/08/19 03:10:50;;;;;;;51.00;35.65;;;16.40;99.90;;;;;;4208020;28;20077;-73
2021/08/19 03:12:50;;;;;;;53.85;35.20;;;16.40;99.90;;;;;;4212042;28;20101;-73
2021/08/19 03:14:51;;;;;;;61.10;36.67;;;16.20;99.90;;;;;;4204455;28;20420;-73
2021/08/19 03:16:52;;;;;;;58.10;35.47;;;16.30;99.90;;;;;;4208625;28;20028;-73
2021/08/19 03:18:52;;;;;;;59.17;36.90;;;16.20;99.90;;;;;;4191678;28;20041;-73
2021/08/19 03:20:53;;;;;;;61.42;38.08;;;16.30;99.90;;;;;;4209953;28;20041;-73
2021/08/19 03:22:55;;;;;;;54.17;36.75;;;16.40;99.90;;;;;;4192629;28;20059;-73
2021/08/19 03:24:55;;;;;;;60.10;38.15;;;16.40;99.90;;;;;;4204211;28;20094;-73
2021/08/19 03:26:57;;;;;;;61.20;39.60;;;16.40;99.90;;;;;;4210257;28;20036;-73
2021/08/19 03:28:58;;;;;;;63.28;38.30;;;16.40;99.90;;;;;;4209980;28;20029;-73
2021/08/19 03:31:00;;;;;;;59.20;38.65;;;16.30;99.90;;;;;;4211271;28;20111;-74
2021/08/19 03:33:06;;;;;;;67.82;37.05;;;16.20;99.90;;;;;;4193990;28;20025;-73
2021/08/19 03:35:07;;;;;;;61.30;37.08;;;16.20;99.90;;;;;;4210392;28;20030;-74
2021/08/19 03:37:08;;;;;;;64.90;38.70;;;16.40;99.90;;;;;;4212435;28;20634;-73
2021/08/19 03:39:08;;;;;;;65.28;39.97;;;16.30;99.90;;;;;;4205392;28;20028;-73
2021/08/19 03:41:10;;;;;;;67.88;39.25;;;16.20;99.90;;;;;;4212626;28;20039;-73
2021/08/19 03:43:11;;;;;;;65.18;39.35;;;16.20;99.90;;;;;;4210708;28;20039;-74
2021/08/19 03:45:11;;;;;;;65.68;38.30;;;16.30;99.90;;;;;;4211811;28;20036;-73
2021/08/19 03:47:12;;;;;;;60.35;39.92;;;16.30;99.90;;;;;;4189374;28;20103;-74
2021/08/19 03:49:13;;;;;;;68.43;40.08;;;16.30;99.90;;;;;;4193880;28;20108;-74
2021/08/19 03:51:13;;;;;;;80.80;41.17;;;16.30;99.90;;;;;;4207447;28;20040;-73
2021/08/19 03:53:14;;;;;;;67.43;39.95;;;16.30;99.90;;;;;;4193191;28;20029;-74
2021/08/19 03:55:14;;;;;;;60.25;39.75;;;16.30;99.90;;;;;;4210146;28;20031;-75
2021/08/19 03:57:15;;;;;;;65.75;39.22;;;16.40;99.90;;;;;;4212189;28;20035;-74
2021/08/19 03:59:16;;;;;;;60.58;38.60;;;16.40;99.90;;;;;;4209863;28;20024;-74
2021/08/19 04:01:17;;;;;;;63.63;38.65;;;16.40;99.90;;;;;;4201450;28;20032;-74
2021/08/19 04:03:17;;;;;;;62.10;37.58;;;16.30;99.90;;;;;;4210303;28;20517;-74
2021/08/19 04:05:18;;;;;;;60.20;37.08;;;16.40;99.90;;;;;;4187983;28;20112;-74
2021/08/19 04:07:18;;;;;;;67.70;38.08;;;16.50;99.90;;;;;;4192778;28;20032;-74
2021/08/19 04:09:19;;;;;;;59.65;34.45;;;16.50;99.90;;;;;;4205670;28;20064;-75
2021/08/19 04:11:20;;;;;;;61.35;36.33;;;16.30;99.90;;;;;;4210131;28;20036;-75
2021/08/19 04:13:20;;;;;;;53.15;35.03;;;16.40;99.90;;;;;;4206927;28;20066;-72
2021/08/19 04:15:21;;;;;;;56.00;36.53;;;16.40;99.90;;;;;;4192905;28;20070;-73
2021/08/19 04:17:21;;;;;;;58.97;36.75;;;16.30;99.90;;;;;;4191676;28;20045;-73
2021/08/19 04:19:22;;;;;;;53.00;34.97;;;16.30;99.90;;;;;;4210140;28;20060;-73
2021/08/19 04:21:22;;;;;;;46.45;33.40;;;16.50;99.90;;;;;;4209873;28;20031;-74
2021/08/19 04:23:23;;;;;;;53.45;33.65;;;16.40;99.90;;;;;;4211035;28;20476;-73
2021/08/19 04:25:23;;;;;;;55.75;32.95;;;16.50;99.90;;;;;;4210628;28;20036;-74
2021/08/19 04:27:24;;;;;;;53.60;35.20;;;16.50;99.90;;;;;;4194435;28;20032;-73
2021/08/19 04:29:25;;;;;;;54.70;34.67;;;16.50;99.90;;;;;;4207883;28;20032;-74
2021/08/19 04:31:25;;;;;;;66.80;34.72;;;16.40;99.90;;;;;;4213569;28;20042;-74
2021/08/19 04:33:28;;;;;;;48.75;33.90;;;16.40;99.90;;;;;;4208487;28;20411;-71
2021/08/19 04:35:30;;;;;;;59.70;35.60;;;16.20;99.90;;;;;;4215333;28;20084;-72
2021/08/19 04:37:30;;;;;;;54.53;33.53;;;16.50;99.90;;;;;;4191606;28;20113;-73
2021/08/19 04:39:31;;;;;;;54.72;33.88;;;16.30;99.90;;;;;;4214617;28;20455;-72
2021/08/19 04:41:32;;;;;;;51.00;33.38;;;16.40;99.90;;;;;;4212863;28;20044;-73
2021/08/19 04:43:32;;;;;;;47.92;31.13;;;16.30;99.90;;;;;;4215131;28;20109;-73
2021/08/19 04:45:33;;;;;;;48.15;31.80;;;16.40;99.90;;;;;;4210817;28;20383;-73
2021/08/19 04:47:33;;;;;;;48.55;33.13;;;16.40;99.90;;;;;;4215253;28;20040;-73
2021/08/19 04:49:34;;;;;;;49.03;31.65;;;16.40;99.90;;;;;;4194336;28;20028;-73
2021/08/19 04:51:35;;;;;;;41.65;29.13;;;16.40;99.90;;;;;;4212830;28;20391;-73
2021/08/19 04:53:36;;;;;;;47.10;29.73;;;16.40;99.90;;;;;;4212704;28;20122;-73
2021/08/19 04:55:37;;;;;;;45.67;31.20;;;16.60;99.90;;;;;;4207108;28;20044;-72
2021/08/19 04:57:38;;;;;;;45.15;30.80;;;16.60;99.90;;;;;;4213834;28;20028;-72
2021/08/19 04:59:39;;;;;;;42.00;28.92;;;;;;;;;;4206915;28;20049;-74
2021/08/19 05:01:40;;;;;;;51.17;30.63;;;16.50;99.90;;;;;;4212479;28;20089;-72
2021/08/19 05:03:40;;;;;;;44.33;29.73;;;16.50;99.90;;;;;;4205709;28;20036;-73
2021/08/19 05:05:41;;;;;;;55.05;32.22;;;16.40;99.90;;;;;;4194222;28;20036;-74
2021/08/19 05:07:42;;;;;;;43.03;30.17;;;16.50;99.90;;;;;;4211670;28;20496;-73
2021/08/19 05:09:42;;;;;;;49.20;30.55;;;16.50;99.90;;;;;;4212486;28;20038;-74
2021/08/19 05:11:43;;;;;;;44.40;30.40;;;16.50;99.90;;;;;;4195459;28;20063;-74
2021/08/19 05:13:44;;;;;;;43.50;31.08;;;16.60;99.90;;;;;;4212993;28;20493;-74
2021/08/19 05:15:44;;;;;;;44.35;30.23;;;16.40;99.90;;;;;;4210676;28;20065;-73
2021/08/19 05:17:45;;;;;;;44.97;29.42;;;16.60;99.90;;;;;;4212478;28;20403;-73
2021/08/19 05:19:45;;;;;;;46.88;29.58;;;16.70;99.90;;;;;;4212990;28;20447;-74
2021/08/19 05:21:48;;;;;;;43.35;28.45;;;16.70;99.90;;;;;;4213103;28;20115;-73
2021/08/19 05:23:50;;;;;;;50.85;31.52;;;16.10;99.90;;;;;;4194915;28;20085;-72
2021/08/19 05:25:50;;;;;;;49.03;31.77;;;16.80;99.90;;;;;;4208469;28;20055;-72
2021/08/19 05:27:51;;;;;;;44.60;30.67;;;16.70;99.90;;;;;;4211912;28;20442;-72
2021/08/19 05:29:51;;;;;;;51.03;32.17;;;16.70;99.90;;;;;;4194747;28;20408;-73
2021/08/19 05:31:52;;;;;;;48.53;29.90;;;;;;;;;;4193602;28;20130;-73
2021/08/19 05:33:54;;;;;;;48.58;31.30;;;16.70;99.90;;;;;;4212677;28;20549;-74
2021/08/19 05:35:55;;;;;;;46.45;30.33;;;16.70;99.90;;;;;;4208053;28;20031;-73
2021/08/19 05:37:56;;;;;;;55.00;30.23;;;16.60;99.90;;;;;;4194960;28;20033;-73
2021/08/19 05:39:57;;;;;;;51.83;30.65;;;16.80;99.90;;;;;;4208633;28;20513;-73
2021/08/19 05:41:57;;;;;;;42.90;29.85;;;16.70;99.90;;;;;;4213294;28;20048;-73
2021/08/19 05:43:58;;;;;;;48.25;31.73;;;16.70;99.90;;;;;;4210468;28;20032;-72
2021/08/19 05:45:58;;;;;;;43.78;30.63;;;16.70;99.90;;;;;;4195742;28;20036;-73
2021/08/19 05:48:01;;;;;;;50.08;30.35;;;16.70;99.90;;;;;;4211184;28;20040;-74
2021/08/19 05:50:03;;;;;;;42.50;29.63;;;16.70;99.90;;;;;;4213831;28;20637;-75
2021/08/19 05:52:04;;;;;;;41.97;28.08;;;16.70;99.90;;;;;;4212118;28;20089;-75
2021/08/19 05:54:04;;;;;;;47.47;28.63;;;16.70;99.90;;;;;;4207843;28;20036;-73
2021/08/19 05:56:05;;;;;;;48.33;27.98;;;16.80;99.90;;;;;;4211822;28;20028;-74
2021/08/19 05:58:06;;;;;;;39.45;27.05;;;16.80;99.90;;;;;;4209181;28;20033;-73
2021/08/19 06:00:07;;;;;;;42.65;26.90;;;16.80;99.90;;;;;;4211410;28;20468;-74
2021/08/19 06:02:08;;;;;;;42.30;25.98;;;16.80;99.90;;;;;;4210798;28;20036;-73
2021/08/19 06:04:09;;;;;;;46.33;27.95;;;16.80;99.90;;;;;;4194257;28;20032;-74
2021/08/19 06:06:15;;;;;;;41.58;26.67;;;16.70;99.90;;;;;;4192883;28;20069;-73
2021/08/19 06:08:16;;;;;;;45.25;27.83;;;16.70;99.90;;;;;;4211634;28;20028;-74
2021/08/19 06:10:16;;;;;;;40.35;26.08;;;16.70;99.90;;;;;;4212408;28;20052;-74
2021/08/19 06:12:18;;;;;;;33.33;24.13;;;16.70;99.90;;;;;;4213085;28;20044;-73
2021/08/19 06:14:18;;;;;;;37.25;25.98;;;16.70;99.90;;;;;;4206004;28;20089;-74
2021/08/19 06:16:19;;;;;;;38.97;25.80;;;16.70;99.90;;;;;;4212390;28;20040;-74
2021/08/19 06:18:19;;;;;;;37.42;25.00;;;16.80;99.90;;;;;;4207824;28;20052;-74
2021/08/19 06:20:20;;;;;;;35.70;25.08;;;16.70;99.90;;;;;;4195175;28;20040;-74
2021/08/19 06:22:21;;;;;;;39.13;25.92;;;16.70;99.90;;;;;;4212634;28;20593;-73
2021/08/19 06:24:21;;;;;;;36.90;24.33;;;16.70;99.90;;;;;;4212193;28;20059;-73
2021/08/19 06:26:22;;;;;;;35.72;23.27;;;16.80;99.90;;;;;;4207622;28;20109;-73
2021/08/19 06:28:25;;;;;;;31.13;22.23;;;16.90;99.90;;;;;;4213340;28;20040;-73
2021/08/19 06:30:26;;;;;;;35.63;24.67;;;16.90;99.90;;;;;;4211231;28;20033;-74
2021/08/19 06:32:26;;;;;;;34.50;21.48;;;16.90;99.90;;;;;;4209639;28;20052;-73
2021/08/19 06:34:28;;;;;;;39.85;24.23;;;16.90;99.90;;;;;;4191348;28;20051;-74
2021/08/19 06:36:29;;;;;;;33.25;21.85;;;16.90;99.90;;;;;;4212937;28;20040;-73
2021/08/19 06:38:29;;;;;;;30.73;20.20;;;17.00;99.90;;;;;;4211652;28;20347;-74
2021/08/19 06:40:30;;;;;;;35.35;22.67;;;17.00;99.90;;;;;;4207949;28;20185;-72
2021/08/19 06:42:30;;;;;;;32.90;21.65;;;17.00;99.90;;;;;;4208156;28;20028;-73
2021/08/19 06:44:31;;;;;;;28.52;20.70;;;16.90;99.90;;;;;;4210530;28;20113;-73
2021/08/19 06:46:32;;;;;;;28.48;18.75;;;17.00;99.90;;;;;;4194702;28;20032;-73
2021/08/19 06:48:32;;;;;;;29.45;19.73;;;17.10;99.90;;;;;;4192918;28;20078;-74
2021/08/19 06:50:33;;;;;;;29.83;20.15;;;17.10;99.90;;;;;;4207971;28;20039;-73
2021/08/19 06:52:41;;;;;;;35.58;20.17;;;17.20;99.90;;;;;;4209795;28;20417;-74
2021/08/19 06:54:42;;;;;;;29.30;20.52;;;17.20;99.90;;;;;;4193601;28;20127;-74
2021/08/19 06:56:42;;;;;;;33.63;21.00;;;17.10;99.90;;;;;;4205031;28;20039;-73
2021/08/19 06:58:44;;;;;;;41.85;23.60;;;17.20;99.90;;;;;;4208298;28;20387;-74
2021/08/19 07:00:45;;;;;;;40.50;22.63;;;17.20;99.90;;;;;;4193159;28;20089;-73
2021/08/19 07:02:45;;;;;;;30.85;22.95;;;17.20;99.90;;;;;;4211577;28;20122;-73
2021/08/19 07:04:46;;;;;;;37.55;23.33;;;17.20;99.90;;;;;;4191248;28;20052;-74
2021/08/19 07:06:51;;;;;;;37.05;25.90;;;17.30;99.90;;;;;;4211625;28;20173;-74
2021/08/19 07:08:52;;;;;;;34.47;25.15;;;17.40;99.90;;;;;;4205515;28;20040;-73
2021/08/19 07:10:53;;;;;;;35.20;24.27;;;17.40;99.90;;;;;;4211495;28;20024;-73
2021/08/19 07:12:53;;;;;;;41.55;26.98;;;17.40;99.90;;;;;;4191250;28;20484;-74
2021/08/19 07:14:54;;;;;;;39.63;26.48;;;17.40;99.90;;;;;;4211826;28;20028;-73
2021/08/19 07:16:54;;;;;;;35.28;24.27;;;17.40;99.90;;;;;;4209858;28;20418;-73
2021/08/19 07:18:55;;;;;;;32.90;25.00;;;17.50;99.90;;;;;;4209384;28;20036;-73
2021/08/19 07:20:56;;;;;;;38.35;27.38;;;17.60;99.90;;;;;;4206647;28;20066;-73
2021/08/19 07:22:56;;;;;;;39.40;26.27;;;17.70;99.90;;;;;;4193771;28;20036;-71
2021/08/19 07:24:57;;;;;;;35.17;25.38;;;17.70;99.90;;;;;;4206895;28;20643;-74
2021/08/19 07:26:57;;;;;;;38.72;25.30;;;17.80;99.90;;;;;;4193775;28;20036;-73
2021/08/19 07:28:58;;;;;;;30.42;24.60;;;17.90;99.90;;;;;;4209988;28;20038;-74
2021/08/19 07:30:59;;;;;;;34.63;24.45;;;18.00;99.90;;;;;;4194238;28;20061;-74
2021/08/19 07:32:59;;;;;;;37.72;24.83;;;17.90;99.90;;;;;;4210511;28;20078;-73
2021/08/19 07:35:00;;;;;;;35.63;25.13;;;17.90;99.90;;;;;;4211620;28;20028;-72
2021/08/19 07:37:01;;;;;;;42.05;26.05;;;17.90;99.90;;;;;;4191919;28;20032;-74
2021/08/19 07:39:05;;;;;;;37.10;25.48;;;17.90;99.90;;;;;;4205470;28;20407;-73
2021/08/19 07:41:05;;;;;;;41.85;26.20;;;17.80;99.90;;;;;;4211038;28;20051;-73
2021/08/19 07:43:06;;;;;;;36.80;23.05;;;17.80;99.90;;;;;;4208377;28;20032;-73
2021/08/19 07:45:08;;;;;;;32.47;21.92;;;17.90;99.90;;;;;;4210975;28;20077;-74
2021/08/19 07:47:09;;;;;;;29.55;21.08;;;17.90;99.90;;;;;;4208091;28;20040;-74
2021/08/19 07:49:09;;;;;;;33.20;22.40;;;17.90;99.90;;;;;;4193780;28;20415;-74
2021/08/19 07:51:10;;;;;;;27.10;20.92;;;18.00;99.90;;;;;;4210952;28;21480;-73
2021/08/19 07:53:11;;;;;;;35.75;21.52;;;18.20;99.90;;;;;;4210583;28;20031;-74
2021/08/19 07:55:12;;;;;;;34.00;21.77;;;18.40;99.90;;;;;;4191210;28;20024;-74
2021/08/19 07:57:13;;;;;;;26.90;19.85;;;18.30;99.90;;;;;;4202971;28;20111;-73
2021/08/19 07:59:14;;;;;;;25.90;18.92;;;18.30;99.90;;;;;;4204507;28;20108;-74
2021/08/19 08:01:14;;;;;;;30.67;20.52;;;18.30;99.90;;;;;;4204441;28;20458;-74
2021/08/19 08:03:15;;;;;;;30.38;20.45;;;18.30;99.90;;;;;;4207790;28;20056;-74
2021/08/19 08:05:15;;;;;;;26.20;18.40;;;18.20;99.90;;;;;;4184758;28;20367;-74
2021/08/19 08:07:18;;;;;;;29.02;19.33;;;;;;;;;;4206016;28;20036;-74
2021/08/19 08:09:18;;;;;;;32.13;21.00;;;18.10;99.90;;;;;;4192236;28;20029;-75
2021/08/19 08:11:19;;;;;;;28.60;20.35;;;18.00;99.90;;;;;;4207037;28;20399;-74
2021/08/19 08:13:19;;;;;;;27.55;19.65;;;18.00;99.90;;;;;;4192124;28;20044;-74
2021/08/19 08:15:20;;;;;;;24.00;20.30;;;18.00;99.90;;;;;;4207422;28;20617;-74
2021/08/19 08:17:21;;;;;;;27.23;19.42;;;18.10;99.90;;;;;;4210592;28;20071;-74
2021/08/19 08:19:22;;;;;;;21.42;17.23;;;18.20;99.90;;;;;;4208983;28;20060;-74
2021/08/19 08:21:23;;;;;;;23.92;16.00;;;18.30;99.90;;;;;;4191728;28;20043;-74
2021/08/19 08:23:24;;;;;;;23.02;16.77;;;18.50;99.90;;;;;;4208998;28;20040;-73
2021/08/19 08:25:25;;;;;;;20.92;16.48;;;18.60;99.90;;;;;;4212006;28;20032;-74
2021/08/19 08:27:25;;;;;;;18.15;15.18;;;18.60;99.90;;;;;;4210086;28;20032;-74
2021/08/19 08:29:27;;;;;;;23.00;16.33;;;18.60;99.90;;;;;;4185650;28;20054;-74
2021/08/19 08:31:27;;;;;;;22.65;16.08;;;18.60;99.90;;;;;;4207964;28;20541;-73
2021/08/19 08:33:32;;;;;;;21.23;16.30;;;18.60;99.90;;;;;;4202771;28;20107;-74
2021/08/19 08:35:38;;;;;;;20.15;17.33;;;18.60;99.90;;;;;;4208968;28;20040;-74
2021/08/19 08:37:39;;;;;;;19.05;16.58;;;18.50;99.90;;;;;;4206231;28;20077;-74
2021/08/19 08:39:40;;;;;;;27.52;15.55;;;18.50;99.90;;;;;;4193238;28;20130;-73
2021/08/19 08:41:42;;;;;;;23.52;15.20;;;18.70;99.90;;;;;;4208837;28;20027;-73
2021/08/19 08:43:43;;;;;;;20.88;15.68;;;18.40;99.90;;;;;;4204671;28;20045;-73
2021/08/19 08:45:46;;;;;;;17.20;14.60;;;18.30;99.90;;;;;;4208738;28;20032;-73
2021/08/19 08:47:47;;;;;;;18.23;15.00;;;18.40;99.90;;;;;;4204380;28;20187;-73
2021/08/19 08:49:48;;;;;;;23.30;17.15;;;18.50;99.90;;;;;;4193197;28;20029;-73
2021/08/19 08:51:52;;;;;;;21.05;17.08;;;18.50;99.90;;;;;;4189191;28;20611;-73
2021/08/19 08:53:53;;;;;;;15.68;13.07;;;18.60;99.90;;;;;;4206853;28;20101;-74
2021/08/19 08:55:54;;;;;;;16.90;13.50;;;18.80;99.90;;;;;;4203495;28;20032;-73
2021/08/19 08:57:55;;;;;;;20.70;15.50;;;19.00;99.90;;;;;;4205956;28;20028;-74
2021/08/19 08:59:56;;;;;;;20.55;12.65;;;19.00;99.90;;;;;;4211511;28;20114;-73
2021/08/19 09:01:57;;;;;;;18.20;14.07;;;19.00;99.90;;;;;;4209079;28;20032;-73
2021/08/19 09:03:57;;;;;;;18.38;13.32;;;19.00;99.90;;;;;;4210288;28;20056;-73
2021/08/19 09:05:58;;;;;;;18.63;14.15;;;18.90;99.90;;;;;;4209145;28;20043;-74
2021/08/19 09:08:00;;;;;;;19.35;14.65;;;19.00;99.90;;;;;;4209214;28;20056;-74
2021/08/19 09:10:02;;;;;;;19.40;14.10;;;18.90;99.90;;;;;;4193127;28;20511;-74
2021/08/19 09:12:06;;;;;;;15.73;13.30;;;19.10;99.90;;;;;;4210831;28;20051;-74
2021/08/19 09:14:17;;;;;;;17.80;15.57;;;19.10;99.90;;;;;;4209972;28;20035;-74
2021/08/19 09:16:19;;;;;;;20.48;15.13;;;19.20;99.90;;;;;;4213922;28;20439;-73
2021/08/19 09:18:31;;;;;;;17.02;13.93;;;19.10;99.90;;;;;;4196508;28;20056;-73
2021/08/19 09:20:36;;;;;;;19.20;14.70;;;19.30;99.90;;;;;;4212516;28;20032;-73
2021/08/19 09:22:58;;;;;;;18.25;14.63;;;19.30;99.90;;;;;;4195612;28;20117;-72
2021/08/19 09:24:58;;;;;;;17.83;14.35;;;19.40;99.90;;;;;;4212650;28;20430;-73
2021/08/19 09:27:14;;;;;;;17.63;13.00;;;19.40;99.90;;;;;;4193069;28;20036;-73
2021/08/19 09:29:16;;;;;;;16.20;11.85;;;19.60;99.90;;;;;;4190700;28;20025;-73
2021/08/19 09:31:17;;;;;;;15.20;12.05;;;19.60;99.90;;;;;;4210503;28;20025;-74
2021/08/19 09:33:26;;;;;;;16.05;12.38;;;19.80;99.90;;;;;;4210548;28;20028;-73
2021/08/19 09:35:27;;;;;;;15.82;11.95;;;19.80;99.90;;;;;;4211697;28;20043;-72
2021/08/19 09:37:27;;;;;;;13.45;11.07;;;19.90;99.90;;;;;;4212150;28;20036;-73
2021/08/19 09:39:32;;;;;;;15.60;12.20;;;;;;;;;;4188671;28;20551;-73
2021/08/19 09:41:50;;;;;;;14.88;12.52;;;20.00;99.90;;;;;;4192023;28;20037;-71
2021/08/19 09:43:52;;;;;;;16.08;12.07;;;20.00;99.90;;;;;;4204852;28;20115;-73
2021/08/19 09:45:53;;;;;;;16.33;12.25;;;20.00;99.90;;;;;;4195655;28;20373;-74
2021/08/19 09:48:07;;;;;;;13.43;11.95;;;20.00;99.90;;;;;;4188113;28;20106;-73
2021/08/19 09:50:22;;;;;;;16.73;14.80;;;20.10;99.90;;;;;;4208414;28;20069;-73
2021/08/19 09:52:22;;;;;;;15.95;14.18;;;20.20;99.90;;;;;;4191339;28;20403;-74
2021/08/19 09:54:34;;;;;;;16.73;13.77;;;20.40;99.90;;;;;;4211730;28;20055;-73
2021/08/19 09:56:37;;;;;;;16.92;14.60;;;20.20;99.90;;;;;;4210158;28;20111;-74
2021/08/19 09:58:40;;;;;;;20.60;16.75;;;19.90;99.90;;;;;;4191953;28;20075;-73
2021/08/19 10:00:41;;;;;;;17.17;13.82;;;19.80;99.90;;;;;;4211376;28;20592;-72
2021/08/19 10:02:42;;;;;;;14.90;12.80;;;19.80;99.90;;;;;;4210816;28;20031;-73
2021/08/19 10:04:43;;;;;;;19.45;13.52;;;19.90;99.90;;;;;;4193436;28;20364;-73
2021/08/19 10:06:44;;;;;;;15.63;14.13;;;19.70;99.90;;;;;;4213395;28;20078;-73
2021/08/19 10:08:45;;;;;;;30.15;15.90;;;19.70;99.90;;;;;;4211959;28;20032;-72
2021/08/19 10:10:48;;;;;;;15.80;14.02;;;19.70;99.90;;;;;;4193517;28;20040;-74
2021/08/19 10:12:49;;;;;;;17.67;15.45;;;19.60;99.90;;;;;;4212757;28;20040;-72
2021/08/19 10:14:50;;;;;;;17.33;15.45;;;19.50;99.90;;;;;;4212269;28;20044;-73
2021/08/19 10:16:52;;;;;;;19.92;17.83;;;19.40;99.90;;;;;;4211888;28;20505;-73